createdAt,value
2018-12-11T00:00:46.182Z,3.19
2018-12-11T00:01:46.159Z,3.22
2018-12-11T00:02:46.149Z,3.19
2018-12-11T00:03:46.139Z,3.16
2018-12-11T00:04:46.180Z,3.22
2018-12-11T00:05:46.111Z,3.16
2018-12-11T00:06:46.105Z,3.13
2018-12-11T00:07:46.095Z,3.21
2018-12-11T00:08:46.129Z,3.26
2018-12-11T00:09:46.120Z,3.19
2018-12-11T00:10:46.073Z,3.25
2018-12-11T00:11:46.092Z,3.19
2018-12-11T00:12:46.031Z,3.23
2018-12-11T00:13:46.026Z,3.22
2018-12-11T00:14:46.051Z,3.23
2018-12-11T00:15:46.014Z,3.19
2018-12-11T00:16:45.988Z,3.21
2018-12-11T00:18:47.123Z,3.25
2018-12-11T00:19:46.002Z,3.31
2018-12-11T00:20:45.955Z,3.23
2018-12-11T00:21:45.951Z,3.23
2018-12-11T00:22:45.924Z,3.34
2018-12-11T00:23:45.914Z,3.34
2018-12-11T00:24:45.939Z,3.40
2018-12-11T00:25:45.915Z,3.40
2018-12-11T00:26:45.895Z,3.42
2018-12-11T00:27:45.879Z,3.51
2018-12-11T00:28:45.872Z,3.55
2018-12-11T00:29:45.855Z,3.59
2018-12-11T00:30:45.874Z,3.60
2018-12-11T00:31:45.828Z,3.58
2018-12-11T00:32:45.836Z,3.59
2018-12-11T00:33:45.803Z,3.74
2018-12-11T00:34:45.849Z,3.63
2018-12-11T00:35:45.810Z,3.73
2018-12-11T00:36:45.777Z,3.65
2018-12-11T00:37:45.760Z,3.73
2018-12-11T00:38:45.808Z,3.68
2018-12-11T00:39:45.734Z,3.68
2018-12-11T00:40:45.769Z,3.77
2018-12-11T00:41:45.730Z,3.77
2018-12-11T00:42:45.716Z,3.84
2018-12-11T00:43:45.701Z,3.91
2018-12-11T00:44:45.716Z,3.84
2018-12-11T00:45:45.671Z,3.86
2018-12-11T00:46:45.682Z,3.88
2018-12-11T00:47:45.655Z,3.87
2018-12-11T00:48:45.634Z,3.95
2018-12-11T00:49:45.622Z,3.86
2018-12-11T00:50:45.662Z,3.94
2018-12-11T00:51:45.607Z,3.92
2018-12-11T00:52:45.599Z,4.08
2018-12-11T00:53:45.587Z,3.92
2018-12-11T00:54:45.570Z,3.91
2018-12-11T00:55:45.601Z,3.88
2018-12-11T00:56:45.582Z,3.94
2018-12-11T00:57:45.537Z,4.01
2018-12-11T00:58:45.524Z,3.91
2018-12-11T00:59:45.525Z,3.91
2018-12-11T01:00:45.505Z,3.80
2018-12-11T01:01:45.537Z,3.81
2018-12-11T01:02:45.484Z,3.69
2018-12-11T01:03:45.466Z,3.63
2018-12-11T01:04:45.473Z,3.74
2018-12-11T01:05:45.456Z,3.65
2018-12-11T01:06:45.465Z,3.55
2018-12-11T01:07:45.434Z,3.51
2018-12-11T01:08:45.421Z,3.45
2018-12-11T01:09:45.404Z,3.42
2018-12-11T01:10:45.394Z,3.34
2018-12-11T01:11:45.415Z,3.21
2018-12-11T01:12:45.388Z,3.21
2018-12-11T01:13:45.362Z,3.28
2018-12-11T01:14:45.360Z,3.19
2018-12-11T01:15:45.343Z,3.22
2018-12-11T01:16:45.368Z,3.07
2018-12-11T01:17:45.462Z,3.13
2018-12-11T01:18:45.346Z,3.01
2018-12-11T01:19:45.295Z,3.11
2018-12-11T01:20:45.286Z,3.10
2018-12-11T01:21:45.273Z,3.05
2018-12-11T01:22:45.288Z,3.16
2018-12-11T01:23:45.258Z,3.08
2018-12-11T01:24:45.249Z,3.05
2018-12-11T01:25:45.228Z,2.98
2018-12-11T01:26:45.250Z,3.04
2018-12-11T01:27:45.278Z,3.01
2018-12-11T01:28:45.203Z,3.00
2018-12-11T01:29:45.189Z,3.03
2018-12-11T01:30:45.177Z,3.01
2018-12-11T01:31:45.162Z,2.97
2018-12-11T01:32:45.193Z,3.03
2018-12-11T01:33:45.146Z,2.93
2018-12-11T01:34:45.134Z,2.92
2018-12-11T01:35:45.124Z,2.86
2018-12-11T01:36:45.107Z,2.82
2018-12-11T01:37:45.136Z,2.92
2018-12-11T01:38:45.085Z,2.90
2018-12-11T01:39:45.077Z,2.86
2018-12-11T01:40:45.089Z,2.86
2018-12-11T01:41:45.062Z,2.83
2018-12-11T01:42:45.065Z,2.89
2018-12-11T01:43:45.065Z,2.75
2018-12-11T01:44:45.032Z,2.85
2018-12-11T01:45:45.019Z,2.80
2018-12-11T01:46:45.000Z,2.75
2018-12-11T01:47:45.076Z,2.74
2018-12-11T01:48:44.978Z,2.72
2018-12-11T01:49:44.996Z,2.75
2018-12-11T01:50:44.955Z,2.77
2018-12-11T01:51:44.944Z,2.75
2018-12-11T01:52:44.968Z,2.82
2018-12-11T01:53:44.919Z,2.79
2018-12-11T01:54:44.946Z,2.89
2018-12-11T01:55:44.903Z,2.86
2018-12-11T01:56:44.890Z,2.90
2018-12-11T01:57:44.887Z,2.86
2018-12-11T01:59:46.001Z,2.87
2018-12-11T02:00:44.847Z,2.79
2018-12-11T02:01:44.838Z,2.77
2018-12-11T02:02:44.838Z,2.75
2018-12-11T02:03:44.846Z,2.72
2018-12-11T02:04:44.810Z,2.65
2018-12-11T02:05:44.809Z,2.72
2018-12-11T02:06:44.784Z,2.61
2018-12-11T02:07:44.763Z,2.57
2018-12-11T02:08:44.791Z,2.53
2018-12-11T02:09:44.766Z,2.50
2018-12-11T02:10:44.769Z,2.49
2018-12-11T02:11:44.734Z,2.49
2018-12-11T02:12:44.726Z,2.50
2018-12-11T02:13:44.700Z,2.39
2018-12-11T02:14:44.791Z,2.38
2018-12-11T02:15:44.692Z,2.44
2018-12-11T02:16:44.677Z,2.54
2018-12-11T02:17:44.660Z,2.29
2018-12-11T02:18:44.693Z,2.33
2018-12-11T02:19:44.638Z,2.33
2018-12-11T02:20:44.635Z,2.43
2018-12-11T02:21:44.628Z,2.33
2018-12-11T02:22:44.600Z,2.43
2018-12-11T02:23:44.627Z,2.46
2018-12-11T02:24:44.611Z,2.25
2018-12-11T02:25:44.603Z,2.38
2018-12-11T02:26:44.557Z,2.47
2018-12-11T02:27:44.549Z,2.35
2018-12-11T02:28:44.585Z,2.42
2018-12-11T02:29:44.555Z,2.43
2018-12-11T02:30:44.522Z,2.38
2018-12-11T02:31:44.509Z,2.36
2018-12-11T02:33:45.626Z,2.28
2018-12-11T02:34:44.487Z,2.42
2018-12-11T02:35:44.491Z,2.35
2018-12-11T02:36:44.464Z,2.42
2018-12-11T02:37:44.454Z,2.51
2018-12-11T02:38:44.432Z,2.57
2018-12-11T02:39:44.436Z,2.65
2018-12-11T02:40:44.439Z,2.61
2018-12-11T02:41:44.397Z,2.57
2018-12-11T02:42:44.435Z,2.53
2018-12-11T02:43:44.377Z,2.51
2018-12-11T02:44:44.364Z,2.43
2018-12-11T02:45:44.354Z,2.51
2018-12-11T02:46:44.334Z,2.46
2018-12-11T02:47:44.339Z,2.50
2018-12-11T02:48:44.353Z,2.50
2018-12-11T02:49:44.314Z,2.50
2018-12-11T02:51:45.456Z,2.35
2018-12-11T02:52:44.271Z,2.38
2018-12-11T02:53:44.271Z,2.36
2018-12-11T02:54:44.253Z,2.43
2018-12-11T02:55:44.269Z,2.39
2018-12-11T02:56:44.240Z,2.42
2018-12-11T02:57:44.224Z,2.47
2018-12-11T02:58:44.209Z,2.51
2018-12-11T02:59:44.203Z,2.46
2018-12-11T03:00:44.224Z,2.51
2018-12-11T03:01:44.211Z,2.51
2018-12-11T03:02:44.170Z,2.60
2018-12-11T03:03:44.150Z,2.68
2018-12-11T03:04:44.147Z,2.69
2018-12-11T03:05:44.164Z,2.77
2018-12-11T03:06:44.159Z,2.85
2018-12-11T03:08:45.248Z,2.90
2018-12-11T03:09:44.090Z,2.95
2018-12-11T03:11:45.217Z,3.05
2018-12-11T03:12:44.089Z,3.03
2018-12-11T03:13:44.040Z,3.00
2018-12-11T03:14:44.038Z,3.01
2018-12-11T03:15:44.022Z,3.04
2018-12-11T03:16:44.010Z,3.04
2018-12-11T03:17:44.004Z,3.03
2018-12-11T03:18:44.020Z,3.03
2018-12-11T03:19:43.976Z,3.13
2018-12-11T03:20:43.992Z,2.95
2018-12-11T03:21:43.957Z,3.00
2018-12-11T03:22:43.944Z,3.04
2018-12-11T03:23:43.967Z,3.05
2018-12-11T03:24:43.925Z,3.00
2018-12-11T03:25:43.907Z,3.05
2018-12-11T03:26:43.934Z,3.04
2018-12-11T03:27:43.890Z,3.05
2018-12-11T03:28:43.875Z,3.13
2018-12-11T03:30:44.994Z,3.10
2018-12-11T03:31:43.879Z,3.05
2018-12-11T03:32:43.838Z,3.03
2018-12-11T03:33:43.832Z,2.93
2018-12-11T03:34:44.452Z,2.93
2018-12-11T03:35:43.802Z,2.92
2018-12-11T03:36:43.800Z,2.97
2018-12-11T03:37:43.806Z,2.87
2018-12-11T03:38:43.764Z,2.93
2018-12-11T03:39:43.765Z,2.77
2018-12-11T03:40:43.745Z,2.83
2018-12-11T03:41:43.735Z,2.85
2018-12-11T03:43:44.875Z,2.74
2018-12-11T03:44:43.698Z,2.77
2018-12-11T03:45:43.685Z,2.74
2018-12-11T03:46:43.686Z,2.67
2018-12-11T03:47:43.698Z,2.67
2018-12-11T03:48:43.662Z,2.74
2018-12-11T03:49:43.652Z,2.61
2018-12-11T03:50:43.643Z,2.53
2018-12-11T03:51:43.624Z,2.36
2018-12-11T03:52:43.651Z,2.36
2018-12-11T03:53:43.604Z,2.38
2018-12-11T03:54:43.589Z,2.29
2018-12-11T03:55:43.617Z,2.31
2018-12-11T03:56:43.567Z,2.28
2018-12-11T03:57:43.644Z,2.35
2018-12-11T03:58:43.569Z,2.26
2018-12-11T03:59:43.538Z,2.35
2018-12-11T04:00:43.525Z,2.35
2018-12-11T04:01:43.524Z,2.29
2018-12-11T04:02:43.552Z,2.26
2018-12-11T04:03:43.501Z,2.32
2018-12-11T04:04:43.480Z,2.38
2018-12-11T04:05:43.473Z,2.35
2018-12-11T04:06:43.456Z,2.42
2018-12-11T04:07:43.477Z,2.43
2018-12-11T04:08:43.439Z,2.29
2018-12-11T04:09:43.433Z,2.43
2018-12-11T04:10:43.450Z,2.33
2018-12-11T04:11:43.402Z,2.36
2018-12-11T04:12:43.388Z,2.26
2018-12-11T04:13:43.379Z,2.33
2018-12-11T04:14:43.412Z,2.33
2018-12-11T04:15:43.389Z,2.33
2018-12-11T04:16:43.380Z,2.39
2018-12-11T04:17:43.337Z,2.42
2018-12-11T04:18:43.356Z,2.43
2018-12-11T04:19:43.310Z,2.49
2018-12-11T04:20:43.302Z,2.49
2018-12-11T04:21:43.308Z,2.61
2018-12-11T04:22:43.283Z,2.64
2018-12-11T04:23:43.293Z,2.80
2018-12-11T04:24:43.253Z,2.79
2018-12-11T04:25:43.248Z,2.85
2018-12-11T04:26:43.255Z,3.04
2018-12-11T04:27:43.227Z,2.98
2018-12-11T04:28:43.241Z,3.10
2018-12-11T04:29:43.237Z,3.08
2018-12-11T04:30:43.185Z,3.22
2018-12-11T04:31:43.179Z,3.25
2018-12-11T04:32:43.176Z,3.25
2018-12-11T04:33:43.160Z,3.28
2018-12-11T04:34:43.387Z,3.36
2018-12-11T04:35:44.728Z,3.44
2018-12-11T04:36:43.137Z,3.47
2018-12-11T04:37:43.123Z,3.41
2018-12-11T04:38:43.119Z,3.48
2018-12-11T04:39:43.142Z,3.51
2018-12-11T04:40:43.080Z,3.42
2018-12-11T04:41:43.073Z,3.51
2018-12-11T04:42:43.086Z,3.42
2018-12-11T04:43:43.056Z,3.41
2018-12-11T04:44:43.079Z,3.47
2018-12-11T04:45:43.023Z,3.48
2018-12-11T04:46:43.018Z,3.37
2018-12-11T04:47:43.013Z,3.41
2018-12-11T04:48:42.996Z,3.34
2018-12-11T04:49:43.017Z,3.48
2018-12-11T04:50:42.972Z,3.36
2018-12-11T04:51:42.971Z,3.37
2018-12-11T04:52:42.946Z,3.31
2018-12-11T04:53:42.938Z,3.21
2018-12-11T04:54:42.935Z,3.32
2018-12-11T04:55:42.943Z,3.28
2018-12-11T04:56:42.937Z,3.21
2018-12-11T04:57:42.892Z,3.26
2018-12-11T04:58:42.890Z,3.18
2018-12-11T04:59:42.899Z,3.16
2018-12-11T05:00:42.964Z,3.13
2018-12-11T05:01:42.865Z,3.16
2018-12-11T05:02:42.837Z,3.03
2018-12-11T05:03:42.825Z,3.10
2018-12-11T05:04:42.817Z,3.05
2018-12-11T05:05:42.834Z,3.11
2018-12-11T05:06:42.796Z,3.13
2018-12-11T05:07:42.791Z,3.04
2018-12-11T05:08:42.768Z,3.10
2018-12-11T05:09:42.759Z,3.13
2018-12-11T05:10:42.782Z,3.05
2018-12-11T05:11:42.769Z,2.98
2018-12-11T05:12:42.726Z,3.03
2018-12-11T05:13:42.719Z,2.95
2018-12-11T05:14:42.718Z,3.00
2018-12-11T05:15:42.725Z,2.93
2018-12-11T05:16:42.690Z,2.85
2018-12-11T05:17:42.682Z,2.92
2018-12-11T05:18:42.666Z,2.86
2018-12-11T05:19:42.670Z,2.95
2018-12-11T05:20:42.688Z,2.93
2018-12-11T05:21:42.636Z,2.92
2018-12-11T05:22:42.618Z,2.89
2018-12-11T05:23:42.610Z,2.83
2018-12-11T05:24:42.605Z,2.86
2018-12-11T05:25:42.618Z,2.83
2018-12-11T05:26:42.581Z,2.83
2018-12-11T05:27:42.560Z,2.86
2018-12-11T05:28:42.555Z,2.77
2018-12-11T05:29:42.558Z,2.79
2018-12-11T05:30:42.531Z,2.80
2018-12-11T05:31:42.556Z,2.74
2018-12-11T05:32:42.513Z,2.77
2018-12-11T05:33:42.503Z,2.75
2018-12-11T05:34:42.509Z,2.77
2018-12-11T05:35:42.478Z,2.85
2018-12-11T05:36:42.495Z,2.72
2018-12-11T05:37:42.453Z,2.74
2018-12-11T05:38:42.483Z,2.74
2018-12-11T05:39:42.433Z,2.68
2018-12-11T05:40:42.422Z,2.67
2018-12-11T05:41:42.419Z,2.68
2018-12-11T05:42:42.424Z,2.69
2018-12-11T05:43:42.387Z,2.68
2018-12-11T05:44:42.390Z,2.61
2018-12-11T05:45:42.391Z,2.65
2018-12-11T05:46:42.352Z,2.65
2018-12-11T05:47:42.372Z,2.75
2018-12-11T05:48:42.336Z,2.69
2018-12-11T05:49:42.338Z,2.62
2018-12-11T05:50:42.311Z,2.56
2018-12-11T05:51:42.432Z,2.65
2018-12-11T05:52:42.367Z,2.65
2018-12-11T05:53:42.284Z,2.62
2018-12-11T05:54:42.266Z,2.56
2018-12-11T05:55:42.262Z,2.61
2018-12-11T05:56:42.243Z,2.62
2018-12-11T05:57:42.276Z,2.60
2018-12-11T05:58:42.296Z,2.64
2018-12-11T06:00:43.349Z,2.62
2018-12-11T06:02:43.403Z,2.62
2018-12-11T06:03:42.199Z,2.62
2018-12-11T06:04:42.156Z,2.64
2018-12-11T06:05:42.144Z,2.56
2018-12-11T06:06:42.534Z,2.62
2018-12-11T06:07:42.122Z,2.54
2018-12-11T06:08:42.144Z,2.56
2018-12-11T06:09:42.109Z,2.50
2018-12-11T06:10:42.119Z,2.65
2018-12-11T06:11:42.079Z,2.60
2018-12-11T06:12:42.065Z,2.68
2018-12-11T06:13:42.079Z,2.68
2018-12-11T06:14:42.057Z,2.61
2018-12-11T06:15:42.033Z,2.68
2018-12-11T06:16:42.021Z,2.71
2018-12-11T06:17:42.009Z,2.62
2018-12-11T06:18:42.049Z,2.61
2018-12-11T06:19:41.992Z,2.61
2018-12-11T06:20:42.007Z,2.56
2018-12-11T06:21:42.019Z,2.51
2018-12-11T06:22:41.957Z,2.57
2018-12-11T06:23:41.945Z,2.53
2018-12-11T06:24:41.966Z,2.56
2018-12-11T06:25:41.936Z,2.46
2018-12-11T06:27:43.033Z,2.51
2018-12-11T06:28:41.893Z,2.65
2018-12-11T06:29:41.903Z,2.49
2018-12-11T06:30:41.898Z,2.47
2018-12-11T06:31:41.858Z,2.50
2018-12-11T06:32:41.846Z,2.49
2018-12-11T06:33:41.848Z,2.43
2018-12-11T06:34:41.866Z,2.36
2018-12-11T06:35:41.862Z,2.38
2018-12-11T06:36:41.807Z,2.39
2018-12-11T06:38:42.935Z,2.51
2018-12-11T06:39:41.804Z,2.56
2018-12-11T06:40:41.763Z,2.56
2018-12-11T06:41:41.758Z,2.61
2018-12-11T06:42:41.746Z,2.61
2018-12-11T06:43:41.745Z,2.67
2018-12-11T06:44:41.725Z,2.62
2018-12-11T06:45:41.758Z,2.64
2018-12-11T06:46:41.688Z,2.62
2018-12-11T06:47:41.682Z,2.65
2018-12-11T06:48:41.678Z,2.54
2018-12-11T06:49:41.661Z,2.49
2018-12-11T06:50:41.677Z,2.56
2018-12-11T06:51:41.634Z,2.46
2018-12-11T06:52:41.638Z,2.51
2018-12-11T06:53:41.646Z,2.50
2018-12-11T06:54:41.595Z,2.47
2018-12-11T06:55:41.618Z,2.67
2018-12-11T06:56:41.589Z,2.67
2018-12-11T06:57:41.591Z,2.74
2018-12-11T06:58:41.556Z,2.80
2018-12-11T06:59:41.553Z,2.75
2018-12-11T07:00:41.582Z,2.74
2018-12-11T07:01:41.535Z,2.75
2018-12-11T07:02:41.515Z,2.71
2018-12-11T07:03:41.507Z,2.62
2018-12-11T07:04:41.492Z,2.60
2018-12-11T07:05:41.528Z,2.68
2018-12-11T07:06:41.491Z,2.61
2018-12-11T07:07:41.482Z,2.64
2018-12-11T07:08:41.452Z,2.56
2018-12-11T07:09:41.438Z,2.61
2018-12-11T07:10:41.435Z,2.62
2018-12-11T07:11:41.442Z,2.69
2018-12-11T07:12:41.402Z,2.62
2018-12-11T07:13:41.393Z,2.74
2018-12-11T07:14:41.390Z,2.65
2018-12-11T07:15:41.368Z,2.71
2018-12-11T07:16:41.416Z,2.61
2018-12-11T07:17:41.350Z,2.49
2018-12-11T07:18:41.333Z,2.54
2018-12-11T07:19:41.326Z,2.46
2018-12-11T07:20:41.346Z,2.49
2018-12-11T07:21:41.314Z,2.38
2018-12-11T07:22:41.317Z,2.35
2018-12-11T07:23:41.280Z,2.33
2018-12-11T07:24:41.269Z,2.42
2018-12-11T07:25:41.258Z,2.32
2018-12-11T07:26:41.251Z,2.38
2018-12-11T07:27:41.278Z,2.42
2018-12-11T07:28:41.270Z,2.47
2018-12-11T07:29:41.216Z,2.51
2018-12-11T07:30:41.202Z,2.44
2018-12-11T07:31:41.193Z,2.44
2018-12-11T07:32:41.210Z,2.43
2018-12-11T07:33:41.177Z,2.35
2018-12-11T07:34:41.159Z,2.49
2018-12-11T07:35:41.145Z,2.46
2018-12-11T07:36:41.143Z,2.51
2018-12-11T07:37:41.161Z,2.49
2018-12-11T07:38:41.121Z,2.38
2018-12-11T07:39:41.113Z,2.47
2018-12-11T07:40:41.092Z,2.44
2018-12-11T07:41:41.081Z,2.51
2018-12-11T07:42:41.127Z,2.53
2018-12-11T07:43:41.065Z,2.60
2018-12-11T07:44:41.051Z,2.50
2018-12-11T07:45:41.046Z,2.64
2018-12-11T07:46:41.023Z,2.56
2018-12-11T07:47:41.038Z,2.60
2018-12-11T07:48:41.036Z,2.49
2018-12-11T07:49:40.991Z,2.43
2018-12-11T07:50:40.982Z,2.32
2018-12-11T07:51:40.973Z,2.47
2018-12-11T07:52:40.959Z,2.38
2018-12-11T07:53:40.975Z,2.32
2018-12-11T07:54:40.968Z,2.28
2018-12-11T07:55:40.931Z,2.42
2018-12-11T07:56:40.921Z,2.42
2018-12-11T07:57:40.899Z,2.42
2018-12-11T07:58:40.900Z,2.42
2018-12-11T07:59:40.911Z,2.50
2018-12-11T08:00:40.925Z,2.53
2018-12-11T08:01:40.867Z,2.46
2018-12-11T08:02:40.860Z,2.51
2018-12-11T08:03:40.844Z,2.50
2018-12-11T08:04:40.862Z,2.54
2018-12-11T08:05:40.863Z,2.57
2018-12-11T08:07:41.952Z,2.65
2018-12-11T08:08:40.780Z,2.65
2018-12-11T08:09:40.806Z,2.62
2018-12-11T08:10:40.767Z,2.69
2018-12-11T08:11:40.755Z,2.62
2018-12-11T08:12:40.734Z,2.61
2018-12-11T08:13:40.738Z,2.62
2018-12-11T08:14:40.746Z,2.69
2018-12-11T08:15:40.706Z,2.68
2018-12-11T08:16:40.694Z,2.61
2018-12-11T08:17:40.695Z,2.72
2018-12-11T08:18:40.678Z,2.72
2018-12-11T08:19:40.764Z,2.72
2018-12-11T08:20:40.651Z,2.69
2018-12-11T08:21:40.641Z,2.69
2018-12-11T08:22:40.633Z,2.75
2018-12-11T08:23:40.627Z,2.74
2018-12-11T08:24:40.636Z,2.74
2018-12-11T08:25:40.617Z,2.83
2018-12-11T08:26:40.585Z,2.82
2018-12-11T08:27:40.570Z,2.87
2018-12-11T08:28:40.567Z,2.95
2018-12-11T08:29:40.560Z,2.98
2018-12-11T08:30:40.567Z,2.90
2018-12-11T08:31:40.550Z,2.93
2018-12-11T08:32:40.511Z,2.93
2018-12-11T08:33:40.507Z,2.89
2018-12-11T08:34:40.491Z,2.89
2018-12-11T08:35:40.520Z,3.01
2018-12-11T08:36:40.475Z,2.98
2018-12-11T08:37:40.459Z,3.18
2018-12-11T08:38:40.447Z,3.10
2018-12-11T08:39:40.435Z,3.08
2018-12-11T08:40:40.465Z,3.22
2018-12-11T08:41:40.421Z,3.26
2018-12-11T08:42:40.398Z,3.31
2018-12-11T08:43:40.400Z,3.44
2018-12-11T08:44:40.377Z,3.50
2018-12-11T08:45:40.402Z,3.60
2018-12-11T08:46:40.372Z,3.68
2018-12-11T08:47:40.355Z,3.73
2018-12-11T08:48:40.341Z,3.83
2018-12-11T08:49:40.335Z,3.81
2018-12-11T08:50:40.386Z,3.86
2018-12-11T08:51:40.325Z,3.87
2018-12-11T08:52:40.292Z,3.96
2018-12-11T08:53:40.287Z,3.88
2018-12-11T08:54:40.270Z,3.94
2018-12-11T08:55:40.263Z,4.01
2018-12-11T08:56:40.288Z,3.95
2018-12-11T08:57:40.235Z,4.04
2018-12-11T08:58:40.235Z,3.98
2018-12-11T08:59:40.219Z,4.08
2018-12-11T09:00:40.204Z,4.05
2018-12-11T09:01:40.255Z,3.88
2018-12-11T09:02:40.184Z,3.92
2018-12-11T09:03:40.175Z,3.83
2018-12-11T09:04:41.395Z,3.87
2018-12-11T09:05:40.151Z,3.87
2018-12-11T09:06:40.178Z,3.86
2018-12-11T09:07:40.130Z,3.73
2018-12-11T09:08:40.124Z,3.80
2018-12-11T09:09:40.116Z,3.83
2018-12-11T09:10:40.103Z,3.73
2018-12-11T09:11:40.142Z,3.76
2018-12-11T09:12:40.077Z,3.68
2018-12-11T09:13:40.068Z,3.70
2018-12-11T09:14:40.057Z,3.76
2018-12-11T09:15:40.045Z,3.81
2018-12-11T09:16:40.052Z,3.94
2018-12-11T09:17:40.054Z,4.01
2018-12-11T09:18:40.010Z,4.10
2018-12-11T09:19:39.996Z,4.24
2018-12-11T09:20:39.991Z,4.26
2018-12-11T09:21:39.984Z,4.32
2018-12-11T09:22:39.993Z,4.40
2018-12-11T09:23:39.957Z,4.45
2018-12-11T09:24:39.957Z,4.50
2018-12-11T09:25:39.947Z,4.49
2018-12-11T09:26:39.933Z,4.59
2018-12-11T09:27:39.939Z,4.62
2018-12-11T09:28:39.907Z,4.62
2018-12-11T09:29:39.899Z,4.67
2018-12-11T09:30:39.882Z,4.68
2018-12-11T09:31:39.904Z,4.63
2018-12-11T09:32:39.877Z,4.60
2018-12-11T09:33:39.863Z,4.71
2018-12-11T09:34:39.848Z,4.60
2018-12-11T09:36:40.958Z,4.60
2018-12-11T09:37:39.805Z,4.56
2018-12-11T09:38:39.838Z,4.53
2018-12-11T09:39:39.791Z,4.62
2018-12-11T09:40:39.770Z,4.55
2018-12-11T09:41:39.771Z,4.49
2018-12-11T09:42:39.790Z,4.50
2018-12-11T09:43:39.760Z,4.55
2018-12-11T09:44:39.726Z,4.48
2018-12-11T09:45:39.722Z,4.52
2018-12-11T09:46:39.707Z,4.45
2018-12-11T09:47:39.691Z,4.44
2018-12-11T09:48:39.722Z,4.45
2018-12-11T09:49:39.667Z,4.40
2018-12-11T09:50:39.659Z,4.40
2018-12-11T09:51:39.646Z,4.40
2018-12-11T09:52:39.636Z,4.44
2018-12-11T09:53:39.651Z,4.48
2018-12-11T09:54:39.612Z,4.50
2018-12-11T09:55:39.605Z,4.49
2018-12-11T09:56:39.600Z,4.52
2018-12-11T09:57:39.583Z,4.60
2018-12-11T09:58:39.608Z,4.59
2018-12-11T09:59:39.568Z,4.59
2018-12-11T10:00:39.578Z,4.63
2018-12-11T10:01:39.558Z,4.73
2018-12-11T10:02:39.537Z,4.87
2018-12-11T10:03:39.594Z,5.00
2018-12-11T10:04:39.514Z,5.28
2018-12-11T10:05:39.541Z,5.41
2018-12-11T10:06:39.485Z,5.43
2018-12-11T10:07:39.475Z,5.57
2018-12-11T10:08:39.497Z,5.72
2018-12-11T10:09:39.469Z,5.61
2018-12-11T10:10:39.446Z,5.66
2018-12-11T10:11:39.436Z,5.57
2018-12-11T10:12:39.417Z,5.56
2018-12-11T10:13:39.456Z,5.62
2018-12-11T10:14:39.404Z,5.50
2018-12-11T10:15:39.380Z,5.48
2018-12-11T10:17:40.522Z,5.29
2018-12-11T10:18:39.353Z,5.25
2018-12-11T10:20:40.572Z,5.12
2018-12-11T10:21:39.338Z,5.15
2018-12-11T10:22:39.297Z,5.10
2018-12-11T10:23:39.296Z,5.07
2018-12-11T10:24:39.309Z,5.04
2018-12-11T10:26:40.571Z,5.07
2018-12-11T10:27:39.247Z,5.04
2018-12-11T10:28:39.249Z,4.99
2018-12-11T10:29:39.263Z,4.99
2018-12-11T10:30:39.214Z,5.08
2018-12-11T10:31:39.206Z,5.11
2018-12-11T10:32:39.199Z,5.23
2018-12-11T10:33:39.183Z,5.25
2018-12-11T10:34:39.204Z,5.38
2018-12-11T10:35:39.154Z,5.47
2018-12-11T10:36:39.193Z,5.53
2018-12-11T10:37:39.138Z,5.47
2018-12-11T10:38:39.129Z,5.48
2018-12-11T10:39:39.114Z,5.59
2018-12-11T10:40:39.135Z,5.59
2018-12-11T10:41:39.096Z,5.59
2018-12-11T10:42:39.079Z,5.65
2018-12-11T10:43:39.084Z,5.64
2018-12-11T10:44:39.067Z,5.75
2018-12-11T10:45:39.080Z,5.73
2018-12-11T10:46:39.045Z,5.75
2018-12-11T10:47:39.024Z,5.84
2018-12-11T10:48:39.014Z,5.84
2018-12-11T10:49:39.017Z,5.90
2018-12-11T10:50:39.075Z,5.93
2018-12-11T10:51:38.985Z,5.97
2018-12-11T10:52:38.985Z,5.99
2018-12-11T10:53:38.960Z,5.99
2018-12-11T10:54:38.956Z,5.98
2018-12-11T10:55:38.963Z,5.97
2018-12-11T10:56:38.926Z,5.94
2018-12-11T10:57:38.917Z,5.98
2018-12-11T10:58:38.903Z,5.94
2018-12-11T10:59:38.896Z,6.04
2018-12-11T11:00:38.910Z,5.97
2018-12-11T11:01:38.873Z,6.05
2018-12-11T11:02:38.873Z,5.97
2018-12-11T11:03:38.855Z,6.05
2018-12-11T11:04:38.849Z,6.05
2018-12-11T11:05:38.876Z,6.19
2018-12-11T11:06:38.822Z,6.05
2018-12-11T11:07:38.810Z,6.08
2018-12-11T11:08:38.812Z,6.02
2018-12-11T11:09:38.788Z,6.12
2018-12-11T11:10:38.870Z,6.05
2018-12-11T11:11:38.792Z,6.12
2018-12-11T11:12:38.758Z,6.08
2018-12-11T11:13:38.788Z,6.07
2018-12-11T11:14:38.740Z,6.14
2018-12-11T11:15:39.477Z,6.08
2018-12-11T11:17:39.870Z,6.01
2018-12-11T11:18:38.696Z,5.90
2018-12-11T11:19:38.674Z,5.87
2018-12-11T11:21:39.835Z,5.75
2018-12-11T11:22:38.794Z,5.68
2018-12-11T11:23:38.836Z,5.65
2018-12-11T11:24:38.806Z,5.68
2018-12-11T11:25:38.758Z,5.65
2018-12-11T11:26:38.804Z,5.64
2018-12-11T11:27:38.591Z,5.65
2018-12-11T11:28:38.576Z,5.54
2018-12-11T11:29:38.583Z,5.56
2018-12-11T11:30:38.557Z,5.59
2018-12-11T11:31:38.569Z,5.57
2018-12-11T11:32:38.541Z,5.62
2018-12-11T11:33:38.529Z,5.62
2018-12-11T11:34:38.504Z,5.59
2018-12-11T11:35:38.496Z,5.68
2018-12-11T11:36:38.520Z,5.66
2018-12-11T11:37:38.484Z,5.65
2018-12-11T11:38:38.480Z,5.68
2018-12-11T11:39:38.451Z,5.62
2018-12-11T11:40:38.452Z,5.69
2018-12-11T11:41:38.466Z,5.65
2018-12-11T11:42:38.448Z,5.66
2018-12-11T11:43:38.404Z,5.72
2018-12-11T11:44:38.414Z,5.73
2018-12-11T11:45:38.388Z,5.68
2018-12-11T11:46:38.378Z,5.69
2018-12-11T11:47:38.415Z,5.65
2018-12-11T11:48:38.361Z,5.69
2018-12-11T11:49:38.348Z,5.79
2018-12-11T11:50:38.341Z,5.80
2018-12-11T11:51:38.319Z,5.75
2018-12-11T11:52:38.330Z,5.83
2018-12-11T11:53:38.306Z,5.83
2018-12-11T11:54:38.296Z,5.84
2018-12-11T11:55:38.276Z,5.86
2018-12-11T11:56:38.280Z,5.91
2018-12-11T11:57:38.299Z,5.86
2018-12-11T11:58:38.254Z,5.87
2018-12-11T11:59:38.242Z,5.93
2018-12-11T12:00:38.229Z,5.90
2018-12-11T12:01:38.243Z,5.91
2018-12-11T12:02:38.314Z,6.04
2018-12-11T12:03:38.190Z,5.94
2018-12-11T12:04:38.176Z,6.01
2018-12-11T12:05:38.170Z,6.08
2018-12-11T12:06:38.164Z,6.05
2018-12-11T12:07:38.230Z,6.22
2018-12-11T12:08:38.259Z,6.22
2018-12-11T12:09:38.123Z,6.33
2018-12-11T12:10:38.136Z,6.46
2018-12-11T12:11:38.099Z,6.52
2018-12-11T12:12:38.121Z,6.72
2018-12-11T12:13:38.105Z,6.70
2018-12-11T12:14:38.096Z,6.82
2018-12-11T12:15:38.055Z,6.97
2018-12-11T12:16:38.090Z,6.93
2018-12-11T12:17:38.047Z,6.93
2018-12-11T12:18:38.078Z,7.07
2018-12-11T12:19:38.448Z,7.06
2018-12-11T12:20:37.998Z,7.03
2018-12-11T12:21:38.004Z,7.11
2018-12-11T12:22:37.978Z,7.05
2018-12-11T12:23:38.036Z,7.10
2018-12-11T12:24:37.994Z,7.06
2018-12-11T12:25:37.961Z,7.11
2018-12-11T12:26:37.937Z,7.10
2018-12-11T12:27:37.976Z,7.06
2018-12-11T12:28:37.939Z,7.10
2018-12-11T12:29:37.939Z,7.13
2018-12-11T12:30:37.908Z,7.05
2018-12-11T12:31:37.900Z,7.15
2018-12-11T12:32:37.871Z,7.13
2018-12-11T12:33:37.856Z,7.10
2018-12-11T12:34:37.896Z,7.21
2018-12-11T12:36:38.980Z,7.20
2018-12-11T12:37:37.808Z,7.23
2018-12-11T12:38:37.834Z,7.23
2018-12-11T12:39:37.794Z,7.23
2018-12-11T12:40:37.784Z,7.24
2018-12-11T12:41:37.778Z,7.24
2018-12-11T12:42:37.754Z,7.28
2018-12-11T12:43:37.750Z,7.21
2018-12-11T12:44:37.777Z,7.24
2018-12-11T12:45:37.725Z,7.20
2018-12-11T12:46:37.740Z,7.20
2018-12-11T12:48:38.955Z,7.20
2018-12-11T12:50:38.858Z,7.15
2018-12-11T12:51:37.652Z,7.05
2018-12-11T12:52:37.675Z,7.06
2018-12-11T12:53:37.654Z,7.07
2018-12-11T12:54:37.659Z,7.11
2018-12-11T12:55:37.663Z,7.21
2018-12-11T12:56:37.615Z,7.23
2018-12-11T12:57:37.594Z,7.17
2018-12-11T12:58:37.607Z,7.15
2018-12-11T12:59:37.589Z,7.15
2018-12-11T13:00:37.589Z,7.10
2018-12-11T13:01:37.549Z,7.10
2018-12-11T13:02:37.547Z,7.17
2018-12-11T13:03:37.542Z,7.05
2018-12-11T13:04:37.535Z,7.23
2018-12-11T13:05:37.546Z,7.21
2018-12-11T13:06:37.492Z,7.17
2018-12-11T13:07:37.485Z,7.06
2018-12-11T13:08:37.485Z,7.06
2018-12-11T13:09:37.532Z,7.15
2018-12-11T13:10:37.452Z,7.13
2018-12-11T13:11:37.445Z,7.14
2018-12-11T13:12:37.440Z,7.13
2018-12-11T13:13:37.421Z,7.05
2018-12-11T13:14:37.404Z,7.07
2018-12-11T13:15:37.426Z,7.11
2018-12-11T13:16:37.417Z,7.13
2018-12-11T13:17:37.376Z,7.13
2018-12-11T13:18:37.386Z,7.10
2018-12-11T13:19:37.380Z,7.02
2018-12-11T13:20:37.340Z,7.03
2018-12-11T13:21:37.332Z,7.07
2018-12-11T13:22:37.317Z,7.07
2018-12-11T13:23:37.305Z,7.06
2018-12-11T13:24:37.325Z,7.13
2018-12-11T13:25:37.289Z,7.13
2018-12-11T13:26:37.320Z,7.05
2018-12-11T13:27:37.271Z,7.06
2018-12-11T13:28:37.257Z,7.07
2018-12-11T13:29:37.261Z,7.07
2018-12-11T13:30:37.250Z,7.10
2018-12-11T13:31:37.273Z,7.05
2018-12-11T13:32:37.220Z,6.88
2018-12-11T13:33:37.203Z,7.07
2018-12-11T13:34:37.184Z,7.07
2018-12-11T13:35:37.202Z,7.02
2018-12-11T13:36:37.182Z,6.93
2018-12-11T13:37:37.180Z,6.99
2018-12-11T13:38:37.145Z,6.97
2018-12-11T13:39:37.144Z,6.93
2018-12-11T13:40:37.163Z,6.99